Aviation Digital Data Service (ADDS)

Output produced by METARs form (0247 UTC 22 November 2014)
found at http://aviationweather.gov/adds/metars/
 
KLCH 220153Z 12014G21KT 10SM OVC100 17/11 A3020 RMK AO2 SLP235 T01720106